sensor_id;sensor_type;location;lat;lon;timestamp;temperature;humidity
27667;DHT22;15074;50.940;5.282;2023-02-21T00:02:13;7.70;99.90
27667;DHT22;15074;50.940;5.282;2023-02-21T00:04:57;7.60;99.90
27667;DHT22;15074;50.940;5.282;2023-02-21T00:07:41;7.70;99.90
27667;DHT22;15074;50.940;5.282;2023-02-21T00:10:25;7.60;99.90
27667;DHT22;15074;50.940;5.282;2023-02-21T00:13:10;7.60;99.90
27667;DHT22;15074;50.940;5.282;2023-02-21T00:15:54;7.60;99.90
27667;DHT22;15074;50.940;5.282;2023-02-21T00:18:39;7.50;99.90
27667;DHT22;15074;50.940;5.282;2023-02-21T00:21:23;7.40;99.90
27667;DHT22;15074;50.940;5.282;2023-02-21T00:24:13;7.50;99.90
27667;DHT22;15074;50.940;5.282;2023-02-21T00:26:57;7.40;99.90
27667;DHT22;15074;50.940;5.282;2023-02-21T00:29:42;7.40;99.90
27667;DHT22;15074;50.940;5.282;2023-02-21T00:32:26;7.40;99.90
27667;DHT22;15074;50.940;5.282;2023-02-21T00:35:10;7.50;99.90
27667;DHT22;15074;50.940;5.282;2023-02-21T00:37:54;7.40;99.90
27667;DHT22;15074;50.940;5.282;2023-02-21T00:40:38;7.40;99.90
27667;DHT22;15074;50.940;5.282;2023-02-21T00:43:30;7.50;99.90
27667;DHT22;15074;50.940;5.282;2023-02-21T00:46:15;7.40;99.90
27667;DHT22;15074;50.940;5.282;2023-02-21T00:48:59;7.40;99.90
27667;DHT22;15074;50.940;5.282;2023-02-21T00:51:43;7.40;99.90
27667;DHT22;15074;50.940;5.282;2023-02-21T00:54:27;7.40;99.90
27667;DHT22;15074;50.940;5.282;2023-02-21T00:57:12;7.40;99.90
27667;DHT22;15074;50.940;5.282;2023-02-21T00:59:56;7.50;99.90
27667;DHT22;15074;50.940;5.282;2023-02-21T01:02:40;7.50;99.90
27667;DHT22;15074;50.940;5.282;2023-02-21T01:05:25;7.50;99.90
27667;DHT22;15074;50.940;5.282;2023-02-21T01:08:08;7.60;99.90
27667;DHT22;15074;50.940;5.282;2023-02-21T01:10:53;7.50;99.90
27667;DHT22;15074;50.940;5.282;2023-02-21T01:13:36;7.50;99.90
27667;DHT22;15074;50.940;5.282;2023-02-21T01:16:21;7.40;99.90
27667;DHT22;15074;50.940;5.282;2023-02-21T01:19:05;7.40;99.90
27667;DHT22;15074;50.940;5.282;2023-02-21T01:21:49;7.40;99.90
27667;DHT22;15074;50.940;5.282;2023-02-21T01:24:34;7.40;99.90
27667;DHT22;15074;50.940;5.282;2023-02-21T01:27:18;7.40;99.90
27667;DHT22;15074;50.940;5.282;2023-02-21T01:30:02;7.40;99.90
27667;DHT22;15074;50.940;5.282;2023-02-21T01:32:47;7.40;99.90
27667;DHT22;15074;50.940;5.282;2023-02-21T01:35:31;7.40;99.90
27667;DHT22;15074;50.940;5.282;2023-02-21T01:38:15;7.40;99.90
27667;DHT22;15074;50.940;5.282;2023-02-21T01:40:59;7.50;99.90
27667;DHT22;15074;50.940;5.282;2023-02-21T01:44:01;7.50;99.90
27667;DHT22;15074;50.940;5.282;2023-02-21T01:46:46;7.50;99.90
27667;DHT22;15074;50.940;5.282;2023-02-21T01:49:30;7.50;99.90
27667;DHT22;15074;50.940;5.282;2023-02-21T01:52:16;7.40;99.90
27667;DHT22;15074;50.940;5.282;2023-02-21T01:55:01;7.50;99.90
27667;DHT22;15074;50.940;5.282;2023-02-21T01:57:45;7.40;99.90
27667;DHT22;15074;50.940;5.282;2023-02-21T02:00:30;7.50;99.90
27667;DHT22;15074;50.940;5.282;2023-02-21T02:03:16;7.50;99.90
27667;DHT22;15074;50.940;5.282;2023-02-21T02:06:08;7.40;99.90
27667;DHT22;15074;50.940;5.282;2023-02-21T02:08:53;7.40;99.90
27667;DHT22;15074;50.940;5.282;2023-02-21T02:12:06;7.40;99.90
27667;DHT22;15074;50.940;5.282;2023-02-21T02:18:16;7.20;99.90
27667;DHT22;15074;50.940;5.282;2023-02-21T02:29:51;7.20;99.90
27667;DHT22;15074;50.940;5.282;2023-02-21T02:35:18;7.20;99.90
27667;DHT22;15074;50.940;5.282;2023-02-21T02:37:54;7.20;99.90
27667;DHT22;15074;50.940;5.282;2023-02-21T02:40:49;7.20;99.90
27667;DHT22;15074;50.940;5.282;2023-02-21T02:46:21;7.20;99.90
27667;DHT22;15074;50.940;5.282;2023-02-21T02:51:21;7.10;99.90
27667;DHT22;15074;50.940;5.282;2023-02-21T02:53:46;7.10;99.90
27667;DHT22;15074;50.940;5.282;2023-02-21T02:56:14;7.10;99.90
27667;DHT22;15074;50.940;5.282;2023-02-21T03:06:44;7.00;99.90
27667;DHT22;15074;50.940;5.282;2023-02-21T03:12:00;7.00;99.90
27667;DHT22;15074;50.940;5.282;2023-02-21T03:14:36;7.10;99.90
27667;DHT22;15074;50.940;5.282;2023-02-21T03:17:08;7.00;99.90
27667;DHT22;15074;50.940;5.282;2023-02-21T03:19:37;7.00;99.90
27667;DHT22;15074;50.940;5.282;2023-02-21T03:22:07;7.00;99.90
27667;DHT22;15074;50.940;5.282;2023-02-21T03:24:34;7.10;99.90
27667;DHT22;15074;50.940;5.282;2023-02-21T03:27:04;7.10;99.90
27667;DHT22;15074;50.940;5.282;2023-02-21T03:29:32;7.10;99.90
27667;DHT22;15074;50.940;5.282;2023-02-21T03:32:26;7.10;99.90
27667;DHT22;15074;50.940;5.282;2023-02-21T03:34:53;7.00;99.90
27667;DHT22;15074;50.940;5.282;2023-02-21T03:37:28;7.00;99.90
27667;DHT22;15074;50.940;5.282;2023-02-21T03:39:54;7.00;99.90
27667;DHT22;15074;50.940;5.282;2023-02-21T03:42:20;7.00;99.90
27667;DHT22;15074;50.940;5.282;2023-02-21T03:44:45;7.00;99.90
27667;DHT22;15074;50.940;5.282;2023-02-21T03:47:11;7.00;99.90
27667;DHT22;15074;50.940;5.282;2023-02-21T03:49:36;7.00;99.90
27667;DHT22;15074;50.940;5.282;2023-02-21T03:52:02;7.00;99.90
27667;DHT22;15074;50.940;5.282;2023-02-21T03:54:28;7.10;99.90
27667;DHT22;15074;50.940;5.282;2023-02-21T03:56:54;7.10;99.90
27667;DHT22;15074;50.940;5.282;2023-02-21T03:59:19;7.10;99.90
27667;DHT22;15074;50.940;5.282;2023-02-21T04:01:45;7.10;99.90
27667;DHT22;15074;50.940;5.282;2023-02-21T04:04:10;7.10;99.90
27667;DHT22;15074;50.940;5.282;2023-02-21T04:06:36;7.10;99.90
27667;DHT22;15074;50.940;5.282;2023-02-21T04:09:02;7.20;99.90
27667;DHT22;15074;50.940;5.282;2023-02-21T04:11:28;7.10;99.90
27667;DHT22;15074;50.940;5.282;2023-02-21T04:13:53;7.10;99.90
27667;DHT22;15074;50.940;5.282;2023-02-21T04:16:19;7.20;99.90
27667;DHT22;15074;50.940;5.282;2023-02-21T04:18:45;7.20;99.90
27667;DHT22;15074;50.940;5.282;2023-02-21T04:21:24;7.10;99.90
27667;DHT22;15074;50.940;5.282;2023-02-21T04:23:50;7.10;99.90
27667;DHT22;15074;50.940;5.282;2023-02-21T04:26:16;7.10;99.90
27667;DHT22;15074;50.940;5.282;2023-02-21T04:28:42;7.00;99.90
27667;DHT22;15074;50.940;5.282;2023-02-21T04:31:07;7.00;99.90
27667;DHT22;15074;50.940;5.282;2023-02-21T04:33:33;7.00;99.90
27667;DHT22;15074;50.940;5.282;2023-02-21T04:35:58;6.90;99.90
27667;DHT22;15074;50.940;5.282;2023-02-21T04:38:24;7.00;99.90
27667;DHT22;15074;50.940;5.282;2023-02-21T04:40:50;7.00;99.90
27667;DHT22;15074;50.940;5.282;2023-02-21T04:43:15;6.90;99.90
27667;DHT22;15074;50.940;5.282;2023-02-21T04:45:41;7.00;99.90
27667;DHT22;15074;50.940;5.282;2023-02-21T04:48:07;6.90;99.90
27667;DHT22;15074;50.940;5.282;2023-02-21T04:50:33;6.90;99.90
27667;DHT22;15074;50.940;5.282;2023-02-21T04:52:58;6.90;99.90
27667;DHT22;15074;50.940;5.282;2023-02-21T04:55:24;6.90;99.90
27667;DHT22;15074;50.940;5.282;2023-02-21T04:57:50;6.80;99.90
27667;DHT22;15074;50.940;5.282;2023-02-21T05:00:16;6.80;99.90
27667;DHT22;15074;50.940;5.282;2023-02-21T05:02:42;6.80;99.90
27667;DHT22;15074;50.940;5.282;2023-02-21T05:05:09;6.80;99.90
27667;DHT22;15074;50.940;5.282;2023-02-21T05:07:35;6.90;99.90
27667;DHT22;15074;50.940;5.282;2023-02-21T05:10:00;6.80;99.90
27667;DHT22;15074;50.940;5.282;2023-02-21T05:12:26;6.80;99.90
27667;DHT22;15074;50.940;5.282;2023-02-21T05:14:52;6.80;99.90
27667;DHT22;15074;50.940;5.282;2023-02-21T05:17:17;6.80;99.90
27667;DHT22;15074;50.940;5.282;2023-02-21T05:19:45;6.90;99.90
27667;DHT22;15074;50.940;5.282;2023-02-21T05:22:11;6.80;99.90
27667;DHT22;15074;50.940;5.282;2023-02-21T05:24:40;6.80;99.90
27667;DHT22;15074;50.940;5.282;2023-02-21T05:27:07;6.80;99.90
27667;DHT22;15074;50.940;5.282;2023-02-21T05:29:36;6.80;99.90
27667;DHT22;15074;50.940;5.282;2023-02-21T05:32:02;6.90;99.90
27667;DHT22;15074;50.940;5.282;2023-02-21T05:34:28;6.90;99.90
27667;DHT22;15074;50.940;5.282;2023-02-21T05:36:53;6.90;99.90
27667;DHT22;15074;50.940;5.282;2023-02-21T05:39:19;6.90;99.90
27667;DHT22;15074;50.940;5.282;2023-02-21T05:41:49;6.80;99.90
27667;DHT22;15074;50.940;5.282;2023-02-21T05:44:15;6.80;99.90
27667;DHT22;15074;50.940;5.282;2023-02-21T05:46:41;6.80;99.90
27667;DHT22;15074;50.940;5.282;2023-02-21T05:49:06;6.80;99.90
27667;DHT22;15074;50.940;5.282;2023-02-21T05:51:41;6.90;99.90
27667;DHT22;15074;50.940;5.282;2023-02-21T05:54:08;6.80;99.90
27667;DHT22;15074;50.940;5.282;2023-02-21T05:56:38;6.80;99.90
27667;DHT22;15074;50.940;5.282;2023-02-21T05:59:04;6.80;99.90
27667;DHT22;15074;50.940;5.282;2023-02-21T06:01:30;6.80;99.90
27667;DHT22;15074;50.940;5.282;2023-02-21T06:03:55;6.80;99.90
27667;DHT22;15074;50.940;5.282;2023-02-21T06:06:21;6.80;99.90
27667;DHT22;15074;50.940;5.282;2023-02-21T06:08:48;6.80;99.90
27667;DHT22;15074;50.940;5.282;2023-02-21T06:11:20;6.80;99.90
27667;DHT22;15074;50.940;5.282;2023-02-21T06:13:49;6.80;99.90
27667;DHT22;15074;50.940;5.282;2023-02-21T06:16:15;6.80;99.90
27667;DHT22;15074;50.940;5.282;2023-02-21T06:18:41;6.80;99.90
27667;DHT22;15074;50.940;5.282;2023-02-21T06:21:06;6.80;99.90
27667;DHT22;15074;50.940;5.282;2023-02-21T06:23:32;6.80;99.90
27667;DHT22;15074;50.940;5.282;2023-02-21T06:25:58;6.80;99.90
27667;DHT22;15074;50.940;5.282;2023-02-21T06:28:28;6.80;99.90
27667;DHT22;15074;50.940;5.282;2023-02-21T06:30:54;6.80;99.90
27667;DHT22;15074;50.940;5.282;2023-02-21T06:33:20;6.80;99.90
27667;DHT22;15074;50.940;5.282;2023-02-21T06:35:46;6.90;99.90
27667;DHT22;15074;50.940;5.282;2023-02-21T06:38:12;6.90;99.90
27667;DHT22;15074;50.940;5.282;2023-02-21T06:40:37;6.90;99.90
27667;DHT22;15074;50.940;5.282;2023-02-21T06:43:03;6.80;99.90
27667;DHT22;15074;50.940;5.282;2023-02-21T06:45:29;6.80;99.90
27667;DHT22;15074;50.940;5.282;2023-02-21T06:47:54;6.80;99.90
27667;DHT22;15074;50.940;5.282;2023-02-21T06:50:20;6.80;99.90
27667;DHT22;15074;50.940;5.282;2023-02-21T06:52:45;6.90;99.90
27667;DHT22;15074;50.940;5.282;2023-02-21T06:55:11;6.90;99.90
27667;DHT22;15074;50.940;5.282;2023-02-21T06:57:37;6.80;99.90
27667;DHT22;15074;50.940;5.282;2023-02-21T07:00:04;6.80;99.90
27667;DHT22;15074;50.940;5.282;2023-02-21T07:02:30;6.80;99.90
27667;DHT22;15074;50.940;5.282;2023-02-21T07:04:56;6.90;99.90
27667;DHT22;15074;50.940;5.282;2023-02-21T07:07:22;6.80;99.90
27667;DHT22;15074;50.940;5.282;2023-02-21T07:09:47;6.80;99.90
27667;DHT22;15074;50.940;5.282;2023-02-21T07:12:13;6.90;99.90
27667;DHT22;15074;50.940;5.282;2023-02-21T07:14:39;6.90;99.90
27667;DHT22;15074;50.940;5.282;2023-02-21T07:17:05;7.00;99.90
27667;DHT22;15074;50.940;5.282;2023-02-21T07:19:31;7.00;99.90
27667;DHT22;15074;50.940;5.282;2023-02-21T07:21:56;7.00;99.90
27667;DHT22;15074;50.940;5.282;2023-02-21T07:24:22;7.00;99.90
27667;DHT22;15074;50.940;5.282;2023-02-21T07:26:48;7.00;99.90
27667;DHT22;15074;50.940;5.282;2023-02-21T07:29:14;7.00;99.90
27667;DHT22;15074;50.940;5.282;2023-02-21T07:31:39;7.00;99.90
27667;DHT22;15074;50.940;5.282;2023-02-21T07:34:05;7.00;99.90
27667;DHT22;15074;50.940;5.282;2023-02-21T07:36:31;7.00;99.90
27667;DHT22;15074;50.940;5.282;2023-02-21T07:38:56;7.10;99.90
27667;DHT22;15074;50.940;5.282;2023-02-21T07:41:22;7.10;99.90
27667;DHT22;15074;50.940;5.282;2023-02-21T07:43:48;7.20;99.90
27667;DHT22;15074;50.940;5.282;2023-02-21T07:46:16;7.20;99.90
27667;DHT22;15074;50.940;5.282;2023-02-21T07:48:42;7.30;99.90
27667;DHT22;15074;50.940;5.282;2023-02-21T07:51:08;7.40;99.90
27667;DHT22;15074;50.940;5.282;2023-02-21T07:53:34;7.50;99.90
27667;DHT22;15074;50.940;5.282;2023-02-21T07:56:01;7.50;99.90
27667;DHT22;15074;50.940;5.282;2023-02-21T07:58:26;7.60;99.90
27667;DHT22;15074;50.940;5.282;2023-02-21T08:00:52;7.70;99.90
27667;DHT22;15074;50.940;5.282;2023-02-21T08:03:20;7.80;99.90
27667;DHT22;15074;50.940;5.282;2023-02-21T08:05:46;7.70;99.90
27667;DHT22;15074;50.940;5.282;2023-02-21T08:08:13;7.60;99.90
27667;DHT22;15074;50.940;5.282;2023-02-21T08:10:38;7.60;99.90
27667;DHT22;15074;50.940;5.282;2023-02-21T08:13:04;7.60;99.90
27667;DHT22;15074;50.940;5.282;2023-02-21T08:15:30;7.80;99.90
27667;DHT22;15074;50.940;5.282;2023-02-21T08:17:55;7.70;99.90
27667;DHT22;15074;50.940;5.282;2023-02-21T08:20:21;7.80;99.90
27667;DHT22;15074;50.940;5.282;2023-02-21T08:22:47;7.90;99.90
27667;DHT22;15074;50.940;5.282;2023-02-21T08:25:14;7.80;99.90
27667;DHT22;15074;50.940;5.282;2023-02-21T08:27:41;7.60;99.90
27667;DHT22;15074;50.940;5.282;2023-02-21T08:30:09;7.70;99.90
27667;DHT22;15074;50.940;5.282;2023-02-21T08:32:35;7.80;99.90
27667;DHT22;15074;50.940;5.282;2023-02-21T08:35:02;7.90;99.90
27667;DHT22;15074;50.940;5.282;2023-02-21T08:37:30;8.00;99.90
27667;DHT22;15074;50.940;5.282;2023-02-21T08:39:58;8.10;99.90
27667;DHT22;15074;50.940;5.282;2023-02-21T08:42:24;7.90;99.90
27667;DHT22;15074;50.940;5.282;2023-02-21T08:44:50;7.80;99.90
27667;DHT22;15074;50.940;5.282;2023-02-21T08:47:16;7.70;99.90
27667;DHT22;15074;50.940;5.282;2023-02-21T08:49:47;7.60;99.90
27667;DHT22;15074;50.940;5.282;2023-02-21T08:52:14;7.60;99.90
27667;DHT22;15074;50.940;5.282;2023-02-21T08:54:43;7.50;99.90
27667;DHT22;15074;50.940;5.282;2023-02-21T08:57:10;7.60;99.90
27667;DHT22;15074;50.940;5.282;2023-02-21T08:59:42;7.50;99.90
27667;DHT22;15074;50.940;5.282;2023-02-21T09:02:21;7.60;99.90
27667;DHT22;15074;50.940;5.282;2023-02-21T09:04:47;7.70;99.90
27667;DHT22;15074;50.940;5.282;2023-02-21T09:07:14;7.60;99.90
27667;DHT22;15074;50.940;5.282;2023-02-21T09:09:40;7.40;99.90
27667;DHT22;15074;50.940;5.282;2023-02-21T09:12:06;7.40;99.90
27667;DHT22;15074;50.940;5.282;2023-02-21T09:14:37;7.30;99.90
27667;DHT22;15074;50.940;5.282;2023-02-21T09:17:04;7.40;99.90
27667;DHT22;15074;50.940;5.282;2023-02-21T09:19:30;7.40;99.90
27667;DHT22;15074;50.940;5.282;2023-02-21T09:21:56;7.50;99.90
27667;DHT22;15074;50.940;5.282;2023-02-21T09:24:24;7.50;99.90
27667;DHT22;15074;50.940;5.282;2023-02-21T09:26:54;7.50;99.90
27667;DHT22;15074;50.940;5.282;2023-02-21T09:29:26;7.50;99.90
27667;DHT22;15074;50.940;5.282;2023-02-21T09:31:52;7.60;99.90
27667;DHT22;15074;50.940;5.282;2023-02-21T09:34:17;7.80;99.90
27667;DHT22;15074;50.940;5.282;2023-02-21T09:36:44;7.80;99.90
27667;DHT22;15074;50.940;5.282;2023-02-21T09:39:10;7.90;99.90
27667;DHT22;15074;50.940;5.282;2023-02-21T09:41:37;7.90;99.90
27667;DHT22;15074;50.940;5.282;2023-02-21T09:44:05;7.90;99.90
27667;DHT22;15074;50.940;5.282;2023-02-21T09:46:43;7.90;99.90
27667;DHT22;15074;50.940;5.282;2023-02-21T09:49:38;7.80;99.90
27667;DHT22;15074;50.940;5.282;2023-02-21T09:52:06;7.60;99.90
27667;DHT22;15074;50.940;5.282;2023-02-21T09:54:36;7.50;99.90
27667;DHT22;15074;50.940;5.282;2023-02-21T09:57:08;7.60;99.90
27667;DHT22;15074;50.940;5.282;2023-02-21T09:59:35;7.60;99.90
27667;DHT22;15074;50.940;5.282;2023-02-21T10:04:56;7.60;99.90
27667;DHT22;15074;50.940;5.282;2023-02-21T10:07:49;7.60;99.90
27667;DHT22;15074;50.940;5.282;2023-02-21T10:10:29;7.60;99.90
27667;DHT22;15074;50.940;5.282;2023-02-21T10:13:21;7.70;99.90
27667;DHT22;15074;50.940;5.282;2023-02-21T10:15:52;7.70;99.90
27667;DHT22;15074;50.940;5.282;2023-02-21T10:18:37;7.90;99.90
27667;DHT22;15074;50.940;5.282;2023-02-21T10:21:33;8.00;99.90
27667;DHT22;15074;50.940;5.282;2023-02-21T10:24:02;8.00;99.90
27667;DHT22;15074;50.940;5.282;2023-02-21T10:26:33;8.10;99.90
27667;DHT22;15074;50.940;5.282;2023-02-21T10:29:03;8.10;99.90
27667;DHT22;15074;50.940;5.282;2023-02-21T10:31:38;8.30;99.90
27667;DHT22;15074;50.940;5.282;2023-02-21T10:34:06;8.20;99.90
27667;DHT22;15074;50.940;5.282;2023-02-21T10:36:33;8.40;99.90
27667;DHT22;15074;50.940;5.282;2023-02-21T10:39:05;8.40;99.90
27667;DHT22;15074;50.940;5.282;2023-02-21T10:41:37;8.20;99.90
27667;DHT22;15074;50.940;5.282;2023-02-21T10:44:13;8.30;99.90
27667;DHT22;15074;50.940;5.282;2023-02-21T10:46:49;8.10;99.90
27667;DHT22;15074;50.940;5.282;2023-02-21T10:49:23;8.20;99.90
27667;DHT22;15074;50.940;5.282;2023-02-21T10:52:22;8.30;99.90
27667;DHT22;15074;50.940;5.282;2023-02-21T10:57:30;8.10;99.90
27667;DHT22;15074;50.940;5.282;2023-02-21T10:59:56;8.10;99.90
27667;DHT22;15074;50.940;5.282;2023-02-21T11:02:36;8.20;99.90
27667;DHT22;15074;50.940;5.282;2023-02-21T11:05:23;8.20;99.90
27667;DHT22;15074;50.940;5.282;2023-02-21T11:10:56;8.10;99.90
27667;DHT22;15074;50.940;5.282;2023-02-21T11:13:22;8.20;99.90
27667;DHT22;15074;50.940;5.282;2023-02-21T11:15:48;8.20;99.90
27667;DHT22;15074;50.940;5.282;2023-02-21T11:18:31;8.10;99.90
27667;DHT22;15074;50.940;5.282;2023-02-21T11:21:15;8.20;99.90
27667;DHT22;15074;50.940;5.282;2023-02-21T11:23:58;8.30;99.90
27667;DHT22;15074;50.940;5.282;2023-02-21T11:26:30;8.40;99.90
27667;DHT22;15074;50.940;5.282;2023-02-21T11:29:03;8.40;99.90
27667;DHT22;15074;50.940;5.282;2023-02-21T11:31:32;8.50;99.90
27667;DHT22;15074;50.940;5.282;2023-02-21T11:34:03;8.40;99.90
27667;DHT22;15074;50.940;5.282;2023-02-21T11:36:32;8.50;99.90
27667;DHT22;15074;50.940;5.282;2023-02-21T11:39:01;8.40;99.90
27667;DHT22;15074;50.940;5.282;2023-02-21T11:44:01;8.00;99.90
27667;DHT22;15074;50.940;5.282;2023-02-21T11:46:45;7.90;99.90
27667;DHT22;15074;50.940;5.282;2023-02-21T11:52:07;7.90;99.90
27667;DHT22;15074;50.940;5.282;2023-02-21T11:54:33;8.10;99.90
27667;DHT22;15074;50.940;5.282;2023-02-21T11:59:55;8.20;99.90
27667;DHT22;15074;50.940;5.282;2023-02-21T12:22:52;8.20;99.90
27667;DHT22;15074;50.940;5.282;2023-02-21T12:28:31;8.00;99.90
27667;DHT22;15074;50.940;5.282;2023-02-21T12:34:01;8.00;99.90
27667;DHT22;15074;50.940;5.282;2023-02-21T12:47:33;8.10;99.90
27667;DHT22;15074;50.940;5.282;2023-02-21T12:52:40;7.80;99.90
27667;DHT22;15074;50.940;5.282;2023-02-21T12:55:21;7.90;99.90
27667;DHT22;15074;50.940;5.282;2023-02-21T13:00:44;7.70;99.90
27667;DHT22;15074;50.940;5.282;2023-02-21T13:06:29;7.80;99.90
27667;DHT22;15074;50.940;5.282;2023-02-21T13:11:52;7.90;99.90
27667;DHT22;15074;50.940;5.282;2023-02-21T13:14:37;7.90;99.90
27667;DHT22;15074;50.940;5.282;2023-02-21T13:17:03;8.10;99.90
27667;DHT22;15074;50.940;5.282;2023-02-21T13:19:58;8.10;99.90
27667;DHT22;15074;50.940;5.282;2023-02-21T13:28:30;8.30;99.90
27667;DHT22;15074;50.940;5.282;2023-02-21T13:31:02;8.20;99.90
27667;DHT22;15074;50.940;5.282;2023-02-21T13:36:01;8.30;99.90
27667;DHT22;15074;50.940;5.282;2023-02-21T13:38:28;8.40;99.90
27667;DHT22;15074;50.940;5.282;2023-02-21T13:41:08;8.40;99.90
27667;DHT22;15074;50.940;5.282;2023-02-21T13:43:36;8.40;99.90
27667;DHT22;15074;50.940;5.282;2023-02-21T13:57:37;8.30;99.90
27667;DHT22;15074;50.940;5.282;2023-02-21T14:08:20;8.60;99.90
27667;DHT22;15074;50.940;5.282;2023-02-21T14:10:51;8.60;99.90
27667;DHT22;15074;50.940;5.282;2023-02-21T14:13:22;8.70;99.90
27667;DHT22;15074;50.940;5.282;2023-02-21T14:15:55;8.70;99.90
27667;DHT22;15074;50.940;5.282;2023-02-21T14:18:35;8.70;99.90
27667;DHT22;15074;50.940;5.282;2023-02-21T14:23:49;8.60;99.90
27667;DHT22;15074;50.940;5.282;2023-02-21T14:54:08;9.10;99.90
27667;DHT22;15074;50.940;5.282;2023-02-21T14:56:57;9.00;99.90
27667;DHT22;15074;50.940;5.282;2023-02-21T15:00:05;9.00;99.90
27667;DHT22;15074;50.940;5.282;2023-02-21T15:03:04;9.00;99.90
27667;DHT22;15074;50.940;5.282;2023-02-21T15:05:33;9.10;99.90
27667;DHT22;15074;50.940;5.282;2023-02-21T15:08:17;9.30;99.90
27667;DHT22;15074;50.940;5.282;2023-02-21T15:10:46;9.40;99.90
27667;DHT22;15074;50.940;5.282;2023-02-21T15:13:31;9.30;99.90
27667;DHT22;15074;50.940;5.282;2023-02-21T15:15:57;9.30;99.90
27667;DHT22;15074;50.940;5.282;2023-02-21T15:18:27;9.30;99.90
27667;DHT22;15074;50.940;5.282;2023-02-21T15:21:06;9.50;99.90
27667;DHT22;15074;50.940;5.282;2023-02-21T15:23:32;9.60;99.90
27667;DHT22;15074;50.940;5.282;2023-02-21T15:26:00;9.60;99.90
27667;DHT22;15074;50.940;5.282;2023-02-21T15:28:31;9.80;99.90
27667;DHT22;15074;50.940;5.282;2023-02-21T15:31:08;9.90;99.90
27667;DHT22;15074;50.940;5.282;2023-02-21T15:33:37;9.90;99.90
27667;DHT22;15074;50.940;5.282;2023-02-21T15:38:49;9.60;99.90
27667;DHT22;15074;50.940;5.282;2023-02-21T15:41:38;9.40;99.90
27667;DHT22;15074;50.940;5.282;2023-02-21T15:44:22;9.30;99.90
27667;DHT22;15074;50.940;5.282;2023-02-21T15:46:59;9.30;99.90
27667;DHT22;15074;50.940;5.282;2023-02-21T15:52:36;9.20;99.90
27667;DHT22;15074;50.940;5.282;2023-02-21T15:55:13;9.00;99.90
27667;DHT22;15074;50.940;5.282;2023-02-21T15:57:40;9.00;99.90
27667;DHT22;15074;50.940;5.282;2023-02-21T16:00:26;9.10;99.90
27667;DHT22;15074;50.940;5.282;2023-02-21T16:02:52;8.80;99.90
27667;DHT22;15074;50.940;5.282;2023-02-21T16:05:37;8.80;99.90
27667;DHT22;15074;50.940;5.282;2023-02-21T16:08:03;8.60;99.90
27667;DHT22;15074;50.940;5.282;2023-02-21T16:10:30;8.50;99.90
27667;DHT22;15074;50.940;5.282;2023-02-21T16:13:00;8.60;99.90
27667;DHT22;15074;50.940;5.282;2023-02-21T16:15:31;8.50;99.90
27667;DHT22;15074;50.940;5.282;2023-02-21T16:18:00;8.40;99.90
27667;DHT22;15074;50.940;5.282;2023-02-21T16:20:39;8.40;99.90
27667;DHT22;15074;50.940;5.282;2023-02-21T16:28:19;8.50;99.90
27667;DHT22;15074;50.940;5.282;2023-02-21T16:30:45;8.30;99.90
27667;DHT22;15074;50.940;5.282;2023-02-21T16:33:11;8.20;99.90
27667;DHT22;15074;50.940;5.282;2023-02-21T16:35:38;8.20;99.90
27667;DHT22;15074;50.940;5.282;2023-02-21T16:38:04;8.20;99.90
27667;DHT22;15074;50.940;5.282;2023-02-21T16:40:34;8.20;99.90
27667;DHT22;15074;50.940;5.282;2023-02-21T16:43:02;8.10;99.90
27667;DHT22;15074;50.940;5.282;2023-02-21T16:45:29;8.10;99.90
27667;DHT22;15074;50.940;5.282;2023-02-21T16:48:01;8.10;99.90
27667;DHT22;15074;50.940;5.282;2023-02-21T16:50:31;8.10;99.90
27667;DHT22;15074;50.940;5.282;2023-02-21T16:52:57;7.90;99.90
27667;DHT22;15074;50.940;5.282;2023-02-21T16:55:23;7.90;99.90
27667;DHT22;15074;50.940;5.282;2023-02-21T16:57:51;7.90;99.90
27667;DHT22;15074;50.940;5.282;2023-02-21T17:00:19;7.80;99.90
27667;DHT22;15074;50.940;5.282;2023-02-21T17:02:49;7.80;99.90
27667;DHT22;15074;50.940;5.282;2023-02-21T17:05:15;7.70;99.90
27667;DHT22;15074;50.940;5.282;2023-02-21T17:07:41;7.70;99.90
27667;DHT22;15074;50.940;5.282;2023-02-21T17:10:08;7.70;99.90
27667;DHT22;15074;50.940;5.282;2023-02-21T17:12:34;7.70;99.90
27667;DHT22;15074;50.940;5.282;2023-02-21T17:14:59;7.80;99.90
27667;DHT22;15074;50.940;5.282;2023-02-21T17:17:25;7.90;99.90
27667;DHT22;15074;50.940;5.282;2023-02-21T17:19:51;8.00;99.90
27667;DHT22;15074;50.940;5.282;2023-02-21T17:22:16;8.10;99.90
27667;DHT22;15074;50.940;5.282;2023-02-21T17:24:42;8.10;99.90
27667;DHT22;15074;50.940;5.282;2023-02-21T17:27:08;7.90;99.90
27667;DHT22;15074;50.940;5.282;2023-02-21T17:29:33;8.00;99.90
27667;DHT22;15074;50.940;5.282;2023-02-21T17:31:59;8.00;99.90
27667;DHT22;15074;50.940;5.282;2023-02-21T17:34:35;7.90;99.90
27667;DHT22;15074;50.940;5.282;2023-02-21T17:37:02;7.80;99.90
27667;DHT22;15074;50.940;5.282;2023-02-21T17:39:28;7.80;99.90
27667;DHT22;15074;50.940;5.282;2023-02-21T17:41:54;7.80;99.90
27667;DHT22;15074;50.940;5.282;2023-02-21T17:44:20;7.60;99.90
27667;DHT22;15074;50.940;5.282;2023-02-21T17:46:51;7.50;99.90
27667;DHT22;15074;50.940;5.282;2023-02-21T17:49:18;7.50;99.90
27667;DHT22;15074;50.940;5.282;2023-02-21T17:51:45;7.60;99.90
27667;DHT22;15074;50.940;5.282;2023-02-21T17:54:18;7.40;99.90
27667;DHT22;15074;50.940;5.282;2023-02-21T17:56:44;7.40;99.90
27667;DHT22;15074;50.940;5.282;2023-02-21T17:59:11;7.40;99.90
27667;DHT22;15074;50.940;5.282;2023-02-21T18:01:36;7.30;99.90
27667;DHT22;15074;50.940;5.282;2023-02-21T18:04:02;7.20;99.90
27667;DHT22;15074;50.940;5.282;2023-02-21T18:06:29;7.20;99.90
27667;DHT22;15074;50.940;5.282;2023-02-21T18:08:55;7.10;99.90
27667;DHT22;15074;50.940;5.282;2023-02-21T18:11:23;7.10;99.90
27667;DHT22;15074;50.940;5.282;2023-02-21T18:13:49;7.10;99.90
27667;DHT22;15074;50.940;5.282;2023-02-21T18:16:15;7.20;99.90
27667;DHT22;15074;50.940;5.282;2023-02-21T18:18:41;7.30;99.90
27667;DHT22;15074;50.940;5.282;2023-02-21T18:21:08;7.30;99.90
27667;DHT22;15074;50.940;5.282;2023-02-21T18:23:34;7.30;99.90
27667;DHT22;15074;50.940;5.282;2023-02-21T18:26:01;7.40;99.90
27667;DHT22;15074;50.940;5.282;2023-02-21T18:28:27;7.40;99.90
27667;DHT22;15074;50.940;5.282;2023-02-21T18:30:54;7.20;99.90
27667;DHT22;15074;50.940;5.282;2023-02-21T18:33:22;7.00;99.90
27667;DHT22;15074;50.940;5.282;2023-02-21T18:35:48;7.10;99.90
27667;DHT22;15074;50.940;5.282;2023-02-21T18:38:14;7.10;99.90
27667;DHT22;15074;50.940;5.282;2023-02-21T18:40:44;7.20;99.90
27667;DHT22;15074;50.940;5.282;2023-02-21T18:43:19;7.20;99.90
27667;DHT22;15074;50.940;5.282;2023-02-21T18:45:46;7.10;99.90
27667;DHT22;15074;50.940;5.282;2023-02-21T18:48:12;7.00;99.90
27667;DHT22;15074;50.940;5.282;2023-02-21T18:50:39;6.90;99.90
27667;DHT22;15074;50.940;5.282;2023-02-21T18:53:05;6.90;99.90
27667;DHT22;15074;50.940;5.282;2023-02-21T18:55:31;6.90;99.90
27667;DHT22;15074;50.940;5.282;2023-02-21T18:57:58;6.80;99.90
27667;DHT22;15074;50.940;5.282;2023-02-21T19:00:25;6.70;99.90